createdAt,value
2022-11-22T00:00:07.963Z,-0.20
2022-11-22T00:05:10.005Z,-0.20
2022-11-22T00:10:13.359Z,-0.30
2022-11-22T00:15:15.332Z,-0.40
2022-11-22T00:20:17.746Z,-0.40
2022-11-22T00:25:19.574Z,-0.40
2022-11-22T00:30:21.577Z,-0.40
2022-11-22T00:35:23.300Z,-0.40
2022-11-22T00:40:25.029Z,-0.40
2022-11-22T00:45:26.795Z,-0.50
2022-11-22T00:50:28.528Z,-0.40
2022-11-22T00:55:30.250Z,-0.40
2022-11-22T01:00:32.238Z,-0.40
2022-11-22T01:05:34.032Z,-0.50
2022-11-22T01:10:36.787Z,-0.50
2022-11-22T01:15:38.758Z,-0.60
2022-11-22T01:20:41.099Z,-0.70
2022-11-22T01:25:44.682Z,-0.90
2022-11-22T01:30:49.947Z,-0.90
2022-11-22T01:35:51.733Z,-1.00
2022-11-22T01:40:53.832Z,-1.20
2022-11-22T01:46:00.920Z,-1.20
2022-11-22T01:51:15.271Z,-1.30
2022-11-22T01:56:19.535Z,-1.40
2022-11-22T02:01:21.677Z,-1.40
2022-11-22T02:06:28.616Z,-1.40
2022-11-22T02:11:34.024Z,-1.20
2022-11-22T02:16:38.441Z,-1.30
2022-11-22T02:21:40.256Z,-1.20
2022-11-22T02:26:42.432Z,-0.90
2022-11-22T02:31:46.745Z,-0.90
2022-11-22T02:36:54.066Z,-0.90
2022-11-22T02:41:56.896Z,-1.10
2022-11-22T02:46:58.725Z,-0.90
2022-11-22T02:52:00.502Z,-1.00
2022-11-22T02:57:03.302Z,-0.90
2022-11-22T03:02:05.498Z,-0.90
2022-11-22T03:07:07.566Z,-0.60
2022-11-22T03:12:09.438Z,-0.70
2022-11-22T03:17:11.273Z,-0.60
2022-11-22T03:22:13.676Z,-0.70
2022-11-22T03:27:15.473Z,-0.80
2022-11-22T03:32:18.042Z,-0.80
2022-11-22T03:37:19.829Z,-0.80
2022-11-22T03:42:22.267Z,-0.90
2022-11-22T03:47:24.207Z,-1.00
2022-11-22T03:52:26.035Z,-1.10
2022-11-22T03:57:27.913Z,-1.10
2022-11-22T04:02:29.683Z,-1.00
2022-11-22T04:07:31.574Z,-0.90
2022-11-22T04:12:33.486Z,-1.00
2022-11-22T04:17:41.237Z,-1.10
2022-11-22T04:22:43.041Z,-1.00
2022-11-22T04:27:44.848Z,-0.80
2022-11-22T04:32:46.837Z,-0.70
2022-11-22T04:37:52.052Z,-0.50
2022-11-22T04:43:12.362Z,-0.50
2022-11-22T04:48:14.473Z,-0.70
2022-11-22T04:53:17.616Z,-0.60
2022-11-22T04:58:19.813Z,-0.50
2022-11-22T05:03:21.726Z,-0.60
2022-11-22T05:08:23.509Z,-0.70
2022-11-22T05:13:51.740Z,-0.70
2022-11-22T05:18:59.661Z,-0.60
2022-11-22T05:24:02.343Z,-0.70
2022-11-22T05:29:08.940Z,-1.00
2022-11-22T05:34:10.722Z,-1.00
2022-11-22T05:39:12.533Z,-0.90
2022-11-22T05:44:14.325Z,-1.00
2022-11-22T05:49:16.122Z,-1.20
2022-11-22T05:54:17.918Z,-1.10
2022-11-22T05:59:20.232Z,-1.00
2022-11-22T06:04:22.100Z,-1.30
2022-11-22T06:09:23.959Z,-1.30
2022-11-22T06:14:25.810Z,-1.40
2022-11-22T06:19:27.793Z,-1.40
2022-11-22T06:24:29.905Z,-1.40
2022-11-22T06:29:31.902Z,-1.60
2022-11-22T06:34:33.944Z,-1.80
2022-11-22T06:39:36.183Z,-1.60
2022-11-22T06:44:38.066Z,-1.60
2022-11-22T06:49:39.927Z,-1.20
2022-11-22T06:54:41.758Z,-0.90
2022-11-22T06:59:43.574Z,-0.70
2022-11-22T07:05:09.518Z,-0.40
2022-11-22T07:10:07.546Z,0.10
2022-11-22T07:15:09.941Z,0.30
2022-11-22T07:20:11.873Z,0.20
2022-11-22T07:25:13.805Z,0.40
2022-11-22T07:30:16.111Z,0.50
2022-11-22T07:35:17.908Z,1.30
2022-11-22T07:40:19.693Z,1.30
2022-11-22T07:45:21.862Z,1.00
2022-11-22T07:50:23.642Z,1.50
2022-11-22T07:55:27.331Z,3.00
2022-11-22T08:00:29.802Z,2.40
2022-11-22T08:05:31.629Z,2.00
2022-11-22T08:10:33.452Z,2.30
2022-11-22T08:15:35.248Z,3.00
2022-11-22T08:20:37.101Z,3.20
2022-11-22T08:25:38.894Z,2.70
2022-11-22T08:30:40.694Z,2.70
2022-11-22T08:35:43.533Z,3.60
2022-11-22T08:40:45.460Z,4.20
2022-11-22T08:45:49.467Z,3.90
2022-11-22T08:51:12.650Z,3.60
2022-11-22T08:56:15.741Z,4.00
2022-11-22T09:01:18.631Z,4.00
2022-11-22T09:11:42.925Z,5.00
2022-11-22T09:16:44.730Z,5.40
2022-11-22T09:21:46.705Z,5.70
2022-11-22T09:26:48.635Z,5.70
2022-11-22T09:31:50.498Z,6.00
2022-11-22T09:36:52.356Z,6.40
2022-11-22T09:42:17.162Z,7.10
2022-11-22T09:48:05.367Z,7.90
2022-11-22T09:53:43.646Z,7.10
2022-11-22T09:59:09.303Z,6.70
2022-11-22T10:04:16.311Z,6.90
2022-11-22T10:09:36.966Z,5.50
2022-11-22T10:15:04.827Z,5.50
2022-11-22T10:20:06.876Z,5.60
2022-11-22T10:25:43.879Z,6.00
2022-11-22T10:30:58.549Z,6.30
2022-11-22T10:36:06.531Z,6.30
2022-11-22T10:41:12.006Z,6.40
2022-11-22T10:46:43.875Z,6.20
2022-11-22T10:52:09.495Z,5.60
2022-11-22T10:57:29.426Z,5.70
2022-11-22T11:02:43.452Z,5.70
2022-11-22T11:07:56.579Z,6.00
2022-11-22T11:13:15.094Z,5.40
2022-11-22T11:18:32.765Z,5.30
2022-11-22T11:23:35.678Z,5.30
2022-11-22T11:28:37.577Z,5.50
2022-11-22T11:33:41.885Z,5.40
2022-11-22T11:38:43.737Z,5.80
2022-11-22T11:43:46.434Z,5.70
2022-11-22T11:48:50.307Z,6.00
2022-11-22T11:53:55.063Z,6.10
2022-11-22T11:58:59.062Z,5.80
2022-11-22T12:04:03.948Z,6.00
2022-11-22T12:09:27.355Z,6.10
2022-11-22T12:14:48.773Z,6.00
2022-11-22T12:20:02.795Z,5.80
2022-11-22T12:25:36.212Z,5.70
2022-11-22T12:30:41.299Z,5.90
2022-11-22T12:35:44.535Z,5.90
2022-11-22T12:40:51.120Z,6.00
2022-11-22T12:45:59.082Z,5.80
2022-11-22T12:51:12.311Z,5.80
2022-11-22T12:56:32.696Z,6.00
2022-11-22T13:01:42.166Z,6.40
2022-11-22T13:07:05.538Z,5.90
2022-11-22T13:12:13.671Z,5.00
2022-11-22T13:17:17.316Z,4.60
2022-11-22T13:22:33.052Z,4.30
2022-11-22T13:27:59.405Z,3.70
2022-11-22T13:33:01.281Z,3.60
2022-11-22T13:38:17.758Z,3.40
2022-11-22T13:43:22.721Z,3.40
2022-11-22T13:48:40.037Z,3.40
2022-11-22T13:53:44.474Z,3.40
2022-11-22T13:58:55.505Z,3.40
2022-11-22T14:04:19.568Z,3.40
2022-11-22T14:09:30.161Z,3.50
2022-11-22T14:14:51.589Z,3.50
2022-11-22T14:20:32.381Z,3.50
2022-11-22T14:26:03.618Z,3.50
2022-11-22T14:31:23.281Z,3.40
2022-11-22T14:36:25.215Z,3.50
2022-11-22T14:41:30.973Z,3.50
2022-11-22T14:46:56.578Z,3.50
2022-11-22T14:51:59.368Z,3.40
2022-11-22T14:57:06.332Z,3.40
2022-11-22T15:02:23.299Z,3.30
2022-11-22T15:09:18.795Z,3.30
2022-11-22T15:13:22.846Z,3.40
2022-11-22T16:02:11.846Z,3.90
2022-11-22T16:07:29.369Z,3.90
2022-11-22T16:12:38.132Z,3.90
2022-11-22T16:17:55.021Z,3.90
2022-11-22T16:23:12.314Z,3.80
2022-11-22T16:28:47.550Z,3.80
2022-11-22T16:33:52.273Z,3.80
2022-11-22T16:38:55.069Z,3.90
2022-11-22T16:44:04.788Z,4.00
2022-11-22T16:49:20.366Z,4.00
2022-11-22T16:54:24.291Z,4.00
2022-11-22T16:59:28.949Z,3.90
2022-11-22T17:04:37.998Z,3.90
2022-11-22T17:09:46.073Z,3.80
2022-11-22T17:14:49.815Z,3.80
2022-11-22T17:19:53.944Z,3.70
2022-11-22T17:24:57.494Z,3.60
2022-11-22T17:30:00.595Z,3.60
2022-11-22T17:35:04.531Z,3.60
2022-11-22T17:40:09.661Z,3.50
2022-11-22T17:45:13.083Z,3.40
2022-11-22T17:50:16.493Z,3.40
2022-11-22T17:55:20.364Z,3.30
2022-11-22T18:00:29.881Z,3.30
2022-11-22T18:05:36.609Z,3.10
2022-11-22T18:10:39.607Z,3.10
2022-11-22T18:15:42.750Z,3.00
2022-11-22T18:20:50.374Z,2.90
2022-11-22T18:26:01.996Z,2.80
2022-11-22T18:31:12.916Z,2.70
2022-11-22T18:36:53.512Z,2.50
2022-11-22T18:41:47.461Z,2.40
2022-11-22T18:46:49.271Z,2.20
2022-11-22T18:51:51.116Z,2.10
2022-11-22T18:56:52.979Z,2.00
2022-11-22T19:01:55.476Z,1.90
2022-11-22T19:06:57.318Z,1.80
2022-11-22T19:11:59.249Z,1.70
2022-11-22T19:17:01.069Z,1.60
2022-11-22T19:22:03.511Z,1.60
2022-11-22T19:27:05.635Z,1.40
2022-11-22T19:32:07.556Z,1.40
2022-11-22T19:37:12.258Z,1.30
2022-11-22T19:42:21.406Z,1.20
2022-11-22T19:47:24.905Z,1.10
2022-11-22T19:52:28.062Z,1.10
2022-11-22T19:57:31.005Z,1.00
2022-11-22T20:02:33.839Z,0.90
2022-11-22T20:07:36.942Z,0.80
2022-11-22T20:12:40.186Z,0.70
2022-11-22T20:17:43.308Z,0.70
2022-11-22T20:22:47.335Z,0.60
2022-11-22T20:27:51.177Z,0.50
2022-11-22T20:32:54.676Z,0.40
2022-11-22T20:37:57.494Z,0.30
2022-11-22T20:43:00.874Z,0.40
2022-11-22T20:48:03.995Z,0.30
2022-11-22T20:53:07.411Z,0.30
2022-11-22T20:58:14.515Z,0.20
2022-11-22T21:03:19.362Z,0.20
2022-11-22T21:08:29.127Z,0.20
2022-11-22T21:13:34.375Z,0.20
2022-11-22T21:18:38.299Z,0.20
2022-11-22T21:23:45.087Z,0.10
2022-11-22T21:28:53.626Z,0.00
2022-11-22T21:33:59.701Z,0.00
2022-11-22T21:39:05.414Z,0.00
2022-11-22T21:44:11.947Z,0.00
2022-11-22T21:49:14.740Z,-0.10
2022-11-22T21:54:17.745Z,-0.20
2022-11-22T21:59:21.228Z,-0.20
2022-11-22T22:04:24.368Z,-0.20
2022-11-22T22:09:28.117Z,-0.20
2022-11-22T22:14:41.019Z,-0.20
2022-11-22T22:19:45.299Z,-0.30
2022-11-22T22:24:48.053Z,-0.30
2022-11-22T22:29:50.944Z,-0.20
2022-11-22T22:35:06.616Z,-0.20
2022-11-22T22:40:30.207Z,-0.20
2022-11-22T22:45:35.153Z,-0.30
2022-11-22T22:50:37.773Z,-0.30
2022-11-22T22:55:40.673Z,-0.30
2022-11-22T23:00:42.729Z,-0.30
2022-11-22T23:05:44.598Z,-0.40
2022-11-22T23:10:46.395Z,-0.40
2022-11-22T23:15:58.403Z,-0.40
2022-11-22T23:21:02.022Z,-0.40
2022-11-22T23:26:09.448Z,-0.40
2022-11-22T23:31:15.857Z,-0.30
2022-11-22T23:36:19.944Z,-0.30
2022-11-22T23:41:23.663Z,-0.30
2022-11-22T23:46:28.011Z,-0.20
2022-11-22T23:51:31.249Z,-0.20
2022-11-22T23:56:34.857Z,-0.20
